Main page
METAR-TAF:

METAR-TAF

Airports :

Qurghonteppa International Airport

Qurghonteppa, Tajikistan

latitude: 37-51-44N, longitude: 068-51-46E, elevation: 449 m

Current weather observation

The report was made 47 minutes ago, at 21:30 UTC
Wind 4 kt from the Northeast
Temperature 24°C
Humidity 38%
Pressure 1006 hPa
Visibility: 4800 m
haze

METAR: UTDT 052130Z 04002MPS 4800 HZ NSC 24/09 Q1006 R35/CLRD70 RMK QFE715/0954

Time: 03:17 (22:17 UTC)

Forecast

The report was made 1 hour and 17 minutes ago, at 21:00 UTC
Forecast valid from 05 at 22 UTC to 06 at 07 UTC
Wind 4 kt from variable directions
Visibility: 5000 m
Few clouds at a height of 4000 ft
Scattered clouds at a height of 8000 ft
haze
Temporary
from 05 at 22 UTC to 06 at 05 UTC
Visibility: 3100 m
haze

TAF: UTDT 052100Z 0522/0607 VRB02MPS 5000 HZ FEW040 SCT080 TEMPO 0522/0605 3100 HZ

Weather observations and forecasts of more than 4000 airports (METAR and TAF reports).

The available stations are represented by yellow and red dots on the map.

Hover mouse over dot to see the name of the station.

Then click to see weather observations and forecasts.

To change the map : click on the green buttons with a black cross to zoom in, on the green button with a dash to zoom out, or on the green arrows for adjacent maps.


METAR-TAF: